TDPD

Details ICAO TDPD (DOM)
Name Douglas-Charles
Region Dominica
Timezone America/Dominica (UTC-4.0)
Plans Departing 392
Arriving 477
Stats Elevation 73 ft / 22 m (AMSL)
Location 15.546600° -61.301400°
Runways 1
Magnetic Variation 15.113° W
Sunrise 2024-02-21 10:28:55 UTC / 2024-02-21 06:28:55 Local
Sunset 2024-02-21 22:11:48 UTC / 2024-02-21 18:11:48 Local
Advertisement - Login to hide

Runways

ID Width Length Bearing (true/mag) Surface Threshold Overrun Markings Lighting
09 148 ft / 45 m 5,704 ft / 1,739 m 69.87° / 84.98° ASPHALT 1,109 ft / 338 m 0 ft / 0 m PREC-APP EDGE THRESHOLD
27 148 ft / 45 m 5,704 ft / 1,739 m 249.87° / 264.98° ASPHALT 0 ft / 0 m 0 ft / 0 m PREC-APP EDGE THRESHOLD SALS

Map

Weather


0- 5 10 15 20 25 30 35+ Temperature / °C

Clouds and Precipitation
Forecast for 2024-02-21 06:00 UTC. Updated an hour ago

Ground ~20,000 ft ~40,000 ft Winds

METAR

Not found

TAF

TAF TDPD 202300Z 2100/2124 10008KT 9999 SCT018

Frequencies

Tower 118.90 MHz Douglas-Charles Tower
Warning: Do not use this data for real-world aviation or navigation. No guarantee of current accuracy is given.